createdAt,value
2018-03-19T00:00:35.489Z,39.50
2018-03-19T00:01:40.747Z,39.50
2018-03-19T00:02:46.111Z,39.60
2018-03-19T00:03:51.330Z,39.50
2018-03-19T00:04:56.622Z,39.50
2018-03-19T00:06:01.783Z,39.50
2018-03-19T00:07:07.045Z,39.60
2018-03-19T00:08:12.242Z,39.60
2018-03-19T00:09:17.465Z,40.20
2018-03-19T00:10:22.777Z,39.60
2018-03-19T00:11:27.928Z,39.60
2018-03-19T00:12:34.040Z,39.60
2018-03-19T00:13:39.202Z,39.60
2018-03-19T00:14:44.304Z,40.30
2018-03-19T00:15:49.515Z,39.70
2018-03-19T00:16:54.557Z,39.60
2018-03-19T00:17:59.665Z,39.60
2018-03-19T00:19:04.782Z,39.70
2018-03-19T00:20:10.721Z,39.70
2018-03-19T00:21:15.858Z,39.70
2018-03-19T00:22:21.064Z,39.70
2018-03-19T00:23:26.201Z,39.70
2018-03-19T00:24:31.797Z,39.70
2018-03-19T00:25:37.025Z,39.70
2018-03-19T00:26:42.238Z,39.80
2018-03-19T00:27:47.862Z,39.80
2018-03-19T00:28:53.225Z,39.70
2018-03-19T00:29:58.399Z,39.70
2018-03-19T00:31:03.652Z,39.70
2018-03-19T00:32:08.751Z,39.80
2018-03-19T00:33:13.961Z,39.80
2018-03-19T00:34:19.142Z,39.80
2018-03-19T00:35:24.325Z,39.80
2018-03-19T00:36:29.496Z,39.80
2018-03-19T00:37:35.425Z,39.90
2018-03-19T00:38:40.876Z,39.80
2018-03-19T00:39:46.350Z,39.80
2018-03-19T00:40:51.700Z,39.90
2018-03-19T00:41:57.000Z,39.80
2018-03-19T00:43:02.241Z,39.90
2018-03-19T00:44:07.498Z,39.90
2018-03-19T00:45:12.597Z,39.90
2018-03-19T00:46:17.747Z,39.90
2018-03-19T00:47:22.988Z,39.90
2018-03-19T00:48:28.230Z,39.90
2018-03-19T00:49:33.459Z,39.90
2018-03-19T00:50:38.788Z,40.00
2018-03-19T00:51:44.057Z,39.90
2018-03-19T00:52:49.324Z,39.90
2018-03-19T00:53:54.400Z,39.90
2018-03-19T00:55:00.142Z,39.90
2018-03-19T00:56:05.591Z,39.90
2018-03-19T00:57:10.834Z,39.90
2018-03-19T00:58:15.859Z,39.90
2018-03-19T00:59:21.260Z,40.00
2018-03-19T01:00:26.422Z,40.00
2018-03-19T01:01:31.583Z,40.00
2018-03-19T01:02:36.685Z,40.00
2018-03-19T01:03:41.618Z,40.00
2018-03-19T01:04:46.725Z,40.00
2018-03-19T01:05:51.650Z,40.00
2018-03-19T01:06:56.783Z,40.00
2018-03-19T01:08:02.267Z,40.00
2018-03-19T01:09:07.375Z,40.00
2018-03-19T01:10:12.448Z,40.00
2018-03-19T01:11:17.434Z,40.00
2018-03-19T01:12:22.523Z,40.00
2018-03-19T01:13:27.641Z,40.00
2018-03-19T01:14:32.684Z,40.10
2018-03-19T01:15:37.785Z,40.00
2018-03-19T01:16:42.674Z,40.00
2018-03-19T01:17:47.748Z,40.10
2018-03-19T01:18:52.648Z,40.00
2018-03-19T01:19:57.585Z,40.10
2018-03-19T01:21:02.452Z,40.00
2018-03-19T01:22:07.612Z,40.00
2018-03-19T01:23:12.502Z,40.00
2018-03-19T01:24:17.617Z,40.10
2018-03-19T01:25:22.714Z,40.10
2018-03-19T01:26:28.381Z,40.10
2018-03-19T01:27:33.303Z,40.00
2018-03-19T01:28:38.314Z,40.10
2018-03-19T01:29:43.183Z,40.10
2018-03-19T01:30:48.141Z,40.00
2018-03-19T01:31:53.368Z,40.10
2018-03-19T01:32:58.202Z,40.10
2018-03-19T01:34:03.306Z,40.10
2018-03-19T01:35:08.201Z,40.10
2018-03-19T01:36:13.204Z,40.10
2018-03-19T01:37:18.065Z,40.10
2018-03-19T01:38:23.124Z,40.10
2018-03-19T01:39:27.979Z,40.10
2018-03-19T01:40:33.023Z,40.10
2018-03-19T01:41:38.026Z,40.10
2018-03-19T01:42:42.877Z,40.10
2018-03-19T01:43:47.924Z,40.10
2018-03-19T01:44:52.893Z,40.10
2018-03-19T01:45:57.839Z,40.10
2018-03-19T01:47:02.921Z,40.10
2018-03-19T01:48:07.998Z,40.10
2018-03-19T01:49:13.175Z,40.10
2018-03-19T01:50:18.210Z,40.20
2018-03-19T01:51:23.125Z,40.20
2018-03-19T01:52:28.060Z,40.20
2018-03-19T01:53:33.109Z,40.20
2018-03-19T01:54:38.092Z,40.20
2018-03-19T01:55:43.112Z,40.20
2018-03-19T01:56:47.961Z,40.20
2018-03-19T01:57:52.981Z,40.20
2018-03-19T01:58:58.076Z,40.30
2018-03-19T02:00:03.165Z,40.20
2018-03-19T02:01:08.070Z,40.20
2018-03-19T02:02:12.953Z,40.20
2018-03-19T02:03:17.856Z,40.20
2018-03-19T02:04:22.963Z,40.20
2018-03-19T02:05:28.028Z,40.20
2018-03-19T02:06:33.149Z,40.20
2018-03-19T02:07:38.351Z,40.20
2018-03-19T02:08:43.529Z,40.20
2018-03-19T02:09:48.652Z,40.20
2018-03-19T02:10:53.760Z,40.30
2018-03-19T02:11:58.821Z,40.20
2018-03-19T02:13:04.204Z,40.30
2018-03-19T02:14:09.117Z,40.30
2018-03-19T02:15:14.220Z,40.30
2018-03-19T02:16:19.355Z,40.30
2018-03-19T02:17:25.568Z,40.30
2018-03-19T02:18:30.362Z,40.30
2018-03-19T02:19:35.240Z,40.30
2018-03-19T02:20:40.164Z,40.30
2018-03-19T02:21:44.982Z,40.30
2018-03-19T02:22:49.821Z,40.30
2018-03-19T02:23:54.902Z,40.30
2018-03-19T02:24:59.744Z,40.40
2018-03-19T02:26:04.613Z,40.30
2018-03-19T02:27:09.694Z,40.30
2018-03-19T02:28:14.927Z,40.30
2018-03-19T02:29:19.838Z,40.30
2018-03-19T02:30:24.758Z,40.30
2018-03-19T02:31:29.699Z,40.40
2018-03-19T02:32:34.864Z,40.40
2018-03-19T02:33:39.906Z,40.40
2018-03-19T02:34:44.834Z,40.40
2018-03-19T02:35:49.878Z,40.30
2018-03-19T02:36:54.766Z,40.30
2018-03-19T02:38:00.519Z,40.40
2018-03-19T02:39:05.433Z,41.00
2018-03-19T02:40:10.382Z,40.30
2018-03-19T02:41:15.462Z,40.30
2018-03-19T02:42:20.509Z,40.30
2018-03-19T02:43:25.509Z,40.40
2018-03-19T02:44:30.375Z,40.40
2018-03-19T02:45:35.213Z,40.40
2018-03-19T02:46:40.291Z,40.40
2018-03-19T02:47:45.130Z,40.40
2018-03-19T02:48:50.171Z,40.40
2018-03-19T02:49:54.997Z,40.40
2018-03-19T02:51:00.083Z,40.40
2018-03-19T02:52:05.213Z,40.40
2018-03-19T02:53:10.416Z,40.40
2018-03-19T02:54:15.609Z,40.40
2018-03-19T02:55:21.292Z,40.40
2018-03-19T02:56:26.259Z,40.40
2018-03-19T02:57:31.184Z,40.40
2018-03-19T02:58:36.208Z,40.40
2018-03-19T02:59:41.256Z,40.40
2018-03-19T03:00:46.352Z,40.40
2018-03-19T03:01:51.258Z,40.40
2018-03-19T03:02:56.283Z,40.40
2018-03-19T03:04:01.319Z,40.40
2018-03-19T03:05:06.272Z,40.40
2018-03-19T03:06:11.306Z,40.40
2018-03-19T03:07:16.222Z,40.40
2018-03-19T03:08:21.353Z,40.50
2018-03-19T03:09:26.277Z,41.10
2018-03-19T03:10:31.286Z,40.40
2018-03-19T03:11:36.307Z,40.40
2018-03-19T03:12:41.468Z,40.40
2018-03-19T03:13:46.478Z,40.40
2018-03-19T03:14:51.409Z,40.50
2018-03-19T03:15:56.367Z,40.40
2018-03-19T03:17:01.442Z,40.50
2018-03-19T03:18:06.468Z,40.50
2018-03-19T03:19:11.346Z,40.50
2018-03-19T03:20:16.399Z,40.50
2018-03-19T03:21:21.583Z,40.50
2018-03-19T03:22:26.243Z,40.50
2018-03-19T03:23:31.323Z,40.50
2018-03-19T03:24:36.397Z,40.50
2018-03-19T03:25:41.301Z,40.50
2018-03-19T03:26:46.344Z,40.50
2018-03-19T03:27:51.424Z,40.60
2018-03-19T03:28:56.232Z,40.70
2018-03-19T03:30:01.105Z,40.80
2018-03-19T03:31:05.913Z,40.80
2018-03-19T03:32:10.893Z,40.80
2018-03-19T03:33:15.742Z,40.80
2018-03-19T03:34:20.592Z,40.80
2018-03-19T03:35:25.466Z,40.80
2018-03-19T03:36:30.498Z,40.80
2018-03-19T03:37:35.353Z,40.80
2018-03-19T03:38:40.395Z,40.80
2018-03-19T03:39:45.434Z,40.80
2018-03-19T03:40:50.296Z,40.80
2018-03-19T03:41:55.311Z,40.80
2018-03-19T03:43:00.358Z,40.80
2018-03-19T03:44:05.494Z,40.80
2018-03-19T03:45:10.382Z,40.80
2018-03-19T03:46:15.508Z,40.80
2018-03-19T03:47:20.620Z,40.80
2018-03-19T03:48:25.577Z,40.80
2018-03-19T03:49:30.648Z,40.80
2018-03-19T03:50:35.572Z,40.80
2018-03-19T03:51:40.601Z,40.70
2018-03-19T03:52:45.614Z,40.80
2018-03-19T03:53:50.817Z,40.80
2018-03-19T03:54:55.741Z,40.70
2018-03-19T03:56:00.772Z,40.80
2018-03-19T03:57:05.566Z,40.70
2018-03-19T03:58:10.524Z,40.80
2018-03-19T03:59:15.359Z,40.70
2018-03-19T04:00:20.302Z,40.80
2018-03-19T04:01:25.134Z,40.80
2018-03-19T04:02:29.889Z,40.70
2018-03-19T04:03:34.655Z,40.60
2018-03-19T04:04:39.425Z,40.70
2018-03-19T04:05:44.231Z,40.70
2018-03-19T04:06:49.251Z,40.70
2018-03-19T04:07:54.412Z,40.60
2018-03-19T04:08:59.201Z,40.60
2018-03-19T04:10:04.329Z,40.80
2018-03-19T04:11:09.224Z,40.70
2018-03-19T04:12:14.174Z,40.70
2018-03-19T04:13:19.108Z,40.60
2018-03-19T04:14:24.033Z,40.60
2018-03-19T04:15:29.022Z,40.70
2018-03-19T04:16:33.947Z,40.60
2018-03-19T04:17:38.987Z,40.60
2018-03-19T04:18:44.077Z,40.70
2018-03-19T04:19:48.975Z,40.70
2018-03-19T04:20:53.828Z,40.70
2018-03-19T04:21:58.895Z,40.70
2018-03-19T04:23:03.915Z,40.70
2018-03-19T04:24:08.853Z,40.70
2018-03-19T04:25:13.897Z,40.70
2018-03-19T04:26:18.932Z,40.70
2018-03-19T04:27:23.872Z,40.70
2018-03-19T04:28:29.034Z,40.70
2018-03-19T04:29:33.970Z,40.70
2018-03-19T04:30:39.014Z,40.70
2018-03-19T04:31:43.805Z,40.80
2018-03-19T04:32:48.582Z,40.80
2018-03-19T04:33:53.612Z,40.70
2018-03-19T04:34:58.766Z,40.70
2018-03-19T04:36:03.853Z,40.80
2018-03-19T04:37:08.916Z,40.70
2018-03-19T04:38:14.017Z,40.70
2018-03-19T04:39:18.858Z,40.70
2018-03-19T04:40:23.677Z,40.70
2018-03-19T04:41:28.746Z,40.70
2018-03-19T04:42:33.786Z,40.70
2018-03-19T04:43:38.816Z,40.70
2018-03-19T04:44:43.835Z,40.70
2018-03-19T04:45:48.904Z,40.70
2018-03-19T04:46:53.662Z,40.70
2018-03-19T04:47:58.771Z,40.70
2018-03-19T04:49:03.818Z,41.40
2018-03-19T04:50:08.856Z,40.70
2018-03-19T04:51:13.915Z,40.80
2018-03-19T04:52:18.960Z,40.70
2018-03-19T04:53:23.882Z,40.70
2018-03-19T04:54:28.741Z,40.80
2018-03-19T04:55:33.759Z,40.80
2018-03-19T04:56:38.783Z,40.80
2018-03-19T04:57:43.915Z,40.70
2018-03-19T04:58:48.838Z,40.70
2018-03-19T04:59:53.974Z,40.80
2018-03-19T05:00:59.049Z,40.70
2018-03-19T05:02:04.180Z,40.70
2018-03-19T05:03:08.981Z,40.70
2018-03-19T05:04:13.984Z,40.70
2018-03-19T05:05:18.960Z,40.70
2018-03-19T05:06:23.895Z,40.70
2018-03-19T05:07:28.853Z,40.70
2018-03-19T05:08:33.754Z,40.70
2018-03-19T05:09:38.905Z,40.70
2018-03-19T05:10:43.817Z,40.70
2018-03-19T05:11:48.785Z,40.70
2018-03-19T05:12:53.763Z,40.70
2018-03-19T05:13:58.938Z,40.70
2018-03-19T05:15:04.052Z,40.70
2018-03-19T05:16:09.177Z,40.70
2018-03-19T05:17:14.581Z,40.70
2018-03-19T05:18:19.555Z,40.70
2018-03-19T05:19:24.585Z,40.70
2018-03-19T05:20:29.682Z,40.80
2018-03-19T05:21:34.931Z,40.90
2018-03-19T05:22:40.171Z,41.00
2018-03-19T05:23:45.141Z,41.10
2018-03-19T05:24:50.188Z,41.10
2018-03-19T05:25:55.212Z,41.20
2018-03-19T05:27:00.452Z,41.30
2018-03-19T05:28:05.672Z,41.30
2018-03-19T05:29:10.653Z,41.40
2018-03-19T05:30:15.859Z,41.40
2018-03-19T05:31:21.611Z,41.40
2018-03-19T05:32:27.268Z,41.40
2018-03-19T05:33:32.293Z,41.40
2018-03-19T05:34:37.402Z,41.30
2018-03-19T05:35:42.539Z,41.30
2018-03-19T05:36:47.525Z,41.30
2018-03-19T05:37:52.588Z,41.20
2018-03-19T05:38:57.700Z,41.10
2018-03-19T05:40:02.813Z,41.00
2018-03-19T05:41:08.039Z,41.00
2018-03-19T05:42:13.115Z,41.10
2018-03-19T05:43:18.124Z,41.00
2018-03-19T05:44:23.042Z,41.00
2018-03-19T05:45:27.930Z,41.00
2018-03-19T05:46:32.784Z,41.00
2018-03-19T05:47:37.905Z,41.00
2018-03-19T05:48:43.080Z,41.00
2018-03-19T05:49:47.966Z,41.00
2018-03-19T05:50:52.965Z,41.00
2018-03-19T05:51:58.728Z,41.00
2018-03-19T05:53:03.784Z,41.00
2018-03-19T05:54:08.636Z,41.00
2018-03-19T05:55:13.733Z,41.00
2018-03-19T05:56:18.843Z,41.00
2018-03-19T05:57:23.794Z,41.00
2018-03-19T05:58:28.937Z,41.00
2018-03-19T05:59:34.057Z,40.90
2018-03-19T06:00:39.116Z,40.90
2018-03-19T06:01:44.097Z,40.90
2018-03-19T06:02:49.086Z,40.90
2018-03-19T06:03:54.073Z,41.00
2018-03-19T06:04:59.137Z,41.20
2018-03-19T06:06:04.030Z,41.20
2018-03-19T06:07:08.973Z,41.30
2018-03-19T06:08:14.111Z,41.30
2018-03-19T06:09:19.159Z,41.30
2018-03-19T06:10:24.241Z,41.30
2018-03-19T06:11:29.178Z,41.30
2018-03-19T06:12:34.305Z,41.30
2018-03-19T06:13:39.182Z,41.30
2018-03-19T06:14:44.077Z,41.40
2018-03-19T06:15:49.268Z,40.40
2018-03-19T06:16:54.296Z,38.00
2018-03-19T06:17:59.368Z,34.80
2018-03-19T06:19:04.340Z,33.70
2018-03-19T06:20:09.234Z,33.50
2018-03-19T06:21:14.176Z,32.30
2018-03-19T06:22:19.140Z,31.10
2018-03-19T06:23:24.240Z,30.20
2018-03-19T06:24:29.200Z,30.10
2018-03-19T06:25:34.151Z,30.00
2018-03-19T06:26:38.971Z,29.80
2018-03-19T06:27:44.099Z,29.30
2018-03-19T06:28:48.992Z,28.40
2018-03-19T06:29:53.988Z,27.80
2018-03-19T06:30:59.059Z,27.40
2018-03-19T06:32:04.107Z,27.10
2018-03-19T06:33:09.213Z,26.50
2018-03-19T06:34:14.025Z,26.40
2018-03-19T06:35:25.692Z,26.70
2018-03-19T06:36:39.197Z,27.50
2018-03-19T06:37:47.781Z,28.10
2018-03-19T06:38:58.456Z,28.70
2018-03-19T06:40:13.237Z,29.10
2018-03-19T06:41:26.473Z,29.50
2018-03-19T06:42:37.520Z,29.90
2018-03-19T06:43:46.017Z,30.20
2018-03-19T06:44:55.821Z,30.60
2018-03-19T06:46:03.784Z,30.90
2018-03-19T06:47:13.782Z,31.30
2018-03-19T06:48:21.354Z,31.50
2018-03-19T06:49:32.554Z,31.70
2018-03-19T06:50:41.960Z,32.20
2018-03-19T06:51:51.756Z,32.40
2018-03-19T06:53:01.866Z,32.70
2018-03-19T06:54:11.621Z,32.80
2018-03-19T06:55:25.222Z,33.00
2018-03-19T06:56:34.200Z,33.20
2018-03-19T06:57:43.832Z,33.30
2018-03-19T06:58:54.191Z,33.50
2018-03-19T07:00:06.890Z,33.60
2018-03-19T07:01:16.442Z,33.80
2018-03-19T07:02:27.112Z,33.90
2018-03-19T07:03:37.645Z,34.00
2018-03-19T07:04:48.352Z,33.90
2018-03-19T07:05:57.868Z,33.90
2018-03-19T07:07:03.492Z,34.10
2018-03-19T07:08:08.357Z,34.10
2018-03-19T07:09:13.207Z,34.10
2018-03-19T07:10:18.291Z,34.20
2018-03-19T07:11:23.383Z,34.30
2018-03-19T07:12:28.395Z,34.50
2018-03-19T07:13:33.407Z,34.40
2018-03-19T07:14:38.347Z,34.40
2018-03-19T07:15:45.212Z,34.50
2018-03-19T07:16:50.440Z,34.60
2018-03-19T07:17:56.577Z,34.50
2018-03-19T07:19:06.253Z,34.60
2018-03-19T07:20:11.553Z,34.60
2018-03-19T07:21:16.599Z,34.60
2018-03-19T07:22:21.490Z,35.30
2018-03-19T07:23:26.587Z,34.70
2018-03-19T07:24:31.717Z,34.80
2018-03-19T07:25:36.911Z,34.90
2018-03-19T07:26:41.953Z,35.00
2018-03-19T07:27:46.772Z,35.10
2018-03-19T07:28:51.777Z,35.10
2018-03-19T07:29:56.963Z,35.30
2018-03-19T07:31:02.172Z,35.20
2018-03-19T07:32:07.246Z,35.30
2018-03-19T07:33:12.391Z,35.40
2018-03-19T07:34:17.330Z,35.50
2018-03-19T07:35:22.409Z,35.50
2018-03-19T07:36:27.636Z,35.60
2018-03-19T07:37:32.661Z,35.80
2018-03-19T07:38:37.806Z,35.80
2018-03-19T07:39:42.859Z,36.00
2018-03-19T07:40:47.820Z,36.10
2018-03-19T07:41:52.657Z,36.10
2018-03-19T07:42:57.848Z,36.90
2018-03-19T07:44:02.962Z,36.60
2018-03-19T07:45:07.952Z,36.10
2018-03-19T07:46:12.975Z,36.20
2018-03-19T07:47:17.850Z,37.30
2018-03-19T07:48:22.902Z,37.50
2018-03-19T07:49:28.061Z,37.40
2018-03-19T07:50:33.041Z,37.40
2018-03-19T07:51:38.038Z,37.60
2018-03-19T07:52:42.954Z,37.60
2018-03-19T07:53:47.855Z,36.80
2018-03-19T07:54:52.727Z,36.40
2018-03-19T07:55:57.593Z,36.30
2018-03-19T07:57:02.637Z,36.20
2018-03-19T07:58:07.703Z,36.30
2018-03-19T07:59:12.810Z,36.40
2018-03-19T08:00:17.820Z,36.50
2018-03-19T08:01:23.058Z,36.40
2018-03-19T08:02:28.153Z,36.60
2018-03-19T08:03:33.272Z,36.60
2018-03-19T08:04:38.250Z,36.70
2018-03-19T08:05:43.396Z,36.80
2018-03-19T08:06:48.553Z,36.90
2018-03-19T08:07:53.688Z,36.80
2018-03-19T08:08:58.587Z,36.80
2018-03-19T08:10:03.539Z,36.80
2018-03-19T08:11:08.575Z,36.90
2018-03-19T08:12:13.886Z,37.00
2018-03-19T08:13:19.029Z,37.10
2018-03-19T08:14:24.383Z,37.10
2018-03-19T08:15:29.291Z,37.00
2018-03-19T08:16:34.192Z,37.10
2018-03-19T08:17:39.391Z,37.10
2018-03-19T08:18:44.418Z,37.10
2018-03-19T08:19:49.404Z,37.30
2018-03-19T08:20:54.382Z,37.20
2018-03-19T08:21:59.506Z,37.30
2018-03-19T08:23:04.655Z,37.40
2018-03-19T08:24:09.573Z,37.40
2018-03-19T08:25:14.480Z,37.40
2018-03-19T08:26:19.642Z,37.50
2018-03-19T08:27:24.613Z,37.50
2018-03-19T08:28:29.822Z,37.60
2018-03-19T08:29:34.989Z,37.60
2018-03-19T08:30:40.047Z,37.50
2018-03-19T08:31:45.059Z,37.50
2018-03-19T08:32:50.118Z,37.90
2018-03-19T08:33:55.113Z,37.60
2018-03-19T08:35:00.267Z,37.40
2018-03-19T08:36:05.392Z,37.40
2018-03-19T08:37:10.488Z,37.50
2018-03-19T08:38:15.608Z,37.70
2018-03-19T08:39:21.410Z,37.80
2018-03-19T08:40:26.316Z,38.00
2018-03-19T08:41:31.227Z,38.10
2018-03-19T08:42:36.276Z,38.20
2018-03-19T08:43:41.353Z,38.30
2018-03-19T08:44:46.339Z,38.30
2018-03-19T08:45:51.171Z,38.40
2018-03-19T08:46:56.365Z,38.40
2018-03-19T08:48:01.427Z,38.60
2018-03-19T08:49:06.481Z,38.60
2018-03-19T08:50:11.621Z,38.70
2018-03-19T08:51:16.817Z,38.70
2018-03-19T08:52:21.932Z,38.80
2018-03-19T08:53:26.970Z,38.90
2018-03-19T08:54:32.062Z,38.90
2018-03-19T08:55:37.085Z,38.90
2018-03-19T08:56:42.290Z,39.00
2018-03-19T08:57:47.442Z,39.00
2018-03-19T08:58:52.589Z,39.10
2018-03-19T08:59:57.737Z,39.10
2018-03-19T09:01:02.965Z,39.10
2018-03-19T09:02:07.953Z,39.20
2018-03-19T09:03:12.993Z,39.20
2018-03-19T09:04:17.992Z,39.30
2018-03-19T09:05:23.028Z,39.30
2018-03-19T09:06:28.032Z,39.40
2018-03-19T09:07:32.925Z,39.40
2018-03-19T09:08:37.862Z,39.40
2018-03-19T09:09:42.976Z,39.40
2018-03-19T09:10:47.947Z,39.50
2018-03-19T09:11:52.861Z,39.60
2018-03-19T09:12:57.997Z,39.60
2018-03-19T09:14:02.938Z,39.60
2018-03-19T09:15:08.041Z,39.70
2018-03-19T09:16:13.013Z,39.70
2018-03-19T09:17:18.180Z,39.70
2018-03-19T09:18:23.341Z,39.70
2018-03-19T09:19:28.508Z,39.80
2018-03-19T09:20:33.424Z,39.80
2018-03-19T09:21:38.571Z,40.40
2018-03-19T09:22:43.764Z,39.80
2018-03-19T09:23:48.764Z,39.80
2018-03-19T09:24:53.931Z,39.90
2018-03-19T09:25:59.115Z,39.90
2018-03-19T09:27:04.065Z,39.90
2018-03-19T09:28:09.078Z,39.90
2018-03-19T09:29:14.016Z,40.00
2018-03-19T09:30:19.230Z,40.00
2018-03-19T09:31:24.215Z,40.00
2018-03-19T09:32:29.265Z,40.00
2018-03-19T09:33:34.419Z,40.00
2018-03-19T09:34:39.389Z,40.00
2018-03-19T09:35:44.376Z,40.10
2018-03-19T09:36:49.539Z,40.10
2018-03-19T09:37:54.722Z,40.10
2018-03-19T09:38:59.610Z,40.10
2018-03-19T09:40:04.789Z,40.20
2018-03-19T09:41:10.075Z,40.20
2018-03-19T09:42:15.348Z,40.20
2018-03-19T09:43:20.534Z,40.20
2018-03-19T09:44:25.840Z,40.30
2018-03-19T09:45:33.866Z,40.30
2018-03-19T09:46:38.980Z,40.30
2018-03-19T09:47:44.188Z,40.30
2018-03-19T09:48:49.254Z,40.30
2018-03-19T09:49:54.396Z,40.40
2018-03-19T09:50:59.473Z,40.40
2018-03-19T09:52:04.521Z,40.40
2018-03-19T09:53:09.682Z,40.40
2018-03-19T09:54:15.098Z,40.40
2018-03-19T09:55:20.104Z,40.50
2018-03-19T09:56:25.296Z,40.50
2018-03-19T09:57:30.271Z,40.50
2018-03-19T09:58:35.311Z,40.60
2018-03-19T09:59:40.277Z,40.60
2018-03-19T10:00:45.465Z,40.60
2018-03-19T10:01:50.538Z,40.60
2018-03-19T10:02:55.671Z,40.60
2018-03-19T10:04:00.764Z,40.60
2018-03-19T10:05:05.959Z,40.70
2018-03-19T10:06:10.969Z,41.30
2018-03-19T10:07:16.163Z,40.70
2018-03-19T10:08:21.267Z,40.70
2018-03-19T10:09:26.699Z,40.70
2018-03-19T10:10:32.581Z,40.70
2018-03-19T10:11:37.745Z,40.80
2018-03-19T10:12:42.745Z,40.60
2018-03-19T10:13:47.822Z,40.30
2018-03-19T10:14:52.942Z,40.30
2018-03-19T10:15:58.127Z,40.30
2018-03-19T10:17:03.116Z,40.30
2018-03-19T10:18:08.316Z,40.40
2018-03-19T10:19:13.356Z,40.40
2018-03-19T10:20:18.568Z,40.40
2018-03-19T10:21:23.900Z,40.40
2018-03-19T10:22:29.214Z,40.40
2018-03-19T10:23:34.508Z,40.40
2018-03-19T10:24:39.657Z,40.40
2018-03-19T10:25:44.908Z,40.40
2018-03-19T10:26:50.150Z,40.40
2018-03-19T10:27:55.232Z,40.50
2018-03-19T10:29:00.562Z,40.50
2018-03-19T10:30:05.636Z,40.40
2018-03-19T10:31:10.793Z,40.40
2018-03-19T10:32:15.899Z,40.50
2018-03-19T10:33:21.205Z,40.50
2018-03-19T10:34:26.362Z,40.50
2018-03-19T10:35:31.530Z,40.50
2018-03-19T10:36:36.590Z,40.60
2018-03-19T10:37:41.667Z,40.50
2018-03-19T10:38:46.923Z,40.50
2018-03-19T10:39:52.205Z,40.60
2018-03-19T10:40:57.412Z,40.60
2018-03-19T10:42:02.325Z,40.60
2018-03-19T10:43:07.484Z,40.50
2018-03-19T10:44:12.645Z,40.60
2018-03-19T10:45:17.906Z,40.60
2018-03-19T10:46:23.067Z,40.60
2018-03-19T10:47:28.124Z,40.60
2018-03-19T10:48:33.224Z,40.70
2018-03-19T10:49:38.316Z,40.70
2018-03-19T10:50:43.387Z,40.70
2018-03-19T10:51:48.333Z,40.70
2018-03-19T10:52:53.626Z,40.70
2018-03-19T10:53:58.916Z,40.70
2018-03-19T10:55:04.188Z,40.70
2018-03-19T10:56:09.384Z,40.80
2018-03-19T10:57:14.507Z,40.80
2018-03-19T10:58:20.321Z,40.80
2018-03-19T10:59:25.435Z,40.80
2018-03-19T11:00:30.675Z,40.80
2018-03-19T11:01:35.923Z,40.90
2018-03-19T11:02:40.924Z,41.00
2018-03-19T11:03:46.090Z,41.00
2018-03-19T11:04:51.100Z,41.00
2018-03-19T11:05:56.052Z,41.00
2018-03-19T11:07:01.088Z,41.10
2018-03-19T11:08:06.239Z,41.00
2018-03-19T11:09:11.248Z,41.10
2018-03-19T11:10:16.353Z,41.10
2018-03-19T11:11:21.275Z,41.10
2018-03-19T11:12:26.168Z,41.10
2018-03-19T11:13:31.035Z,41.00
2018-03-19T11:14:36.159Z,37.10
2018-03-19T11:15:41.343Z,34.50
2018-03-19T11:16:46.327Z,33.20
2018-03-19T11:17:51.270Z,31.50
2018-03-19T11:18:56.433Z,31.00
2018-03-19T11:20:01.316Z,29.60
2018-03-19T11:21:06.190Z,28.10
2018-03-19T11:22:11.098Z,28.20
2018-03-19T11:23:15.895Z,28.80
2018-03-19T11:24:20.945Z,28.80
2018-03-19T11:25:26.035Z,26.80
2018-03-19T11:26:31.243Z,26.80
2018-03-19T11:27:36.435Z,25.80
2018-03-19T11:28:41.460Z,25.40
2018-03-19T11:29:46.577Z,26.10
2018-03-19T11:30:51.654Z,25.40
2018-03-19T11:31:56.664Z,24.70
2018-03-19T11:33:01.775Z,24.50
2018-03-19T11:34:06.917Z,23.30
2018-03-19T11:35:12.006Z,23.00
2018-03-19T11:36:17.905Z,24.10
2018-03-19T11:37:22.924Z,25.90
2018-03-19T11:38:28.029Z,27.30
2018-03-19T11:39:33.111Z,28.20
2018-03-19T11:40:38.057Z,28.80
2018-03-19T11:41:43.779Z,29.20
2018-03-19T11:42:48.843Z,29.40
2018-03-19T11:43:53.926Z,29.70
2018-03-19T11:44:59.141Z,29.90
2018-03-19T11:46:04.173Z,30.20
2018-03-19T11:47:09.339Z,30.50
2018-03-19T11:48:14.215Z,30.70
2018-03-19T11:49:19.359Z,31.00
2018-03-19T11:50:24.249Z,31.20
2018-03-19T11:51:29.306Z,31.50
2018-03-19T11:52:34.175Z,31.90
2018-03-19T11:53:39.254Z,32.20
2018-03-19T11:54:44.332Z,32.50
2018-03-19T11:55:49.409Z,32.80
2018-03-19T11:56:54.590Z,32.90
2018-03-19T11:57:59.573Z,33.20
2018-03-19T11:59:04.552Z,33.20
2018-03-19T12:00:09.531Z,33.40
2018-03-19T12:01:14.443Z,33.60
2018-03-19T12:02:19.497Z,33.80
2018-03-19T12:03:24.549Z,34.10
2018-03-19T12:04:29.634Z,34.20
2018-03-19T12:05:34.514Z,34.30
2018-03-19T12:06:39.412Z,34.50
2018-03-19T12:07:44.607Z,34.60
2018-03-19T12:08:49.699Z,34.70
2018-03-19T12:09:54.678Z,34.80
2018-03-19T12:10:59.495Z,34.90
2018-03-19T12:12:04.346Z,35.00
2018-03-19T12:13:09.378Z,35.10
2018-03-19T12:14:14.257Z,35.80
2018-03-19T12:15:19.431Z,35.30
2018-03-19T12:16:24.398Z,35.40
2018-03-19T12:17:29.540Z,35.50
2018-03-19T12:18:34.759Z,35.50
2018-03-19T12:19:39.697Z,35.60
2018-03-19T12:20:44.750Z,35.60
2018-03-19T12:21:49.924Z,35.70
2018-03-19T12:22:54.790Z,35.80
2018-03-19T12:23:59.629Z,35.80
2018-03-19T12:25:04.593Z,35.90
2018-03-19T12:26:10.033Z,35.90
2018-03-19T12:27:14.929Z,36.00
2018-03-19T12:28:19.996Z,36.00
2018-03-19T12:29:24.860Z,35.90
2018-03-19T12:30:29.816Z,35.80
2018-03-19T12:31:34.736Z,35.80
2018-03-19T12:32:39.478Z,35.80
2018-03-19T12:33:44.328Z,35.90
2018-03-19T12:34:49.238Z,36.00
2018-03-19T12:35:53.992Z,36.00
2018-03-19T12:36:58.927Z,36.20
2018-03-19T12:38:03.914Z,36.20
2018-03-19T12:39:08.737Z,36.30
2018-03-19T12:40:13.838Z,37.00
2018-03-19T12:41:18.861Z,36.40
2018-03-19T12:42:23.922Z,36.40
2018-03-19T12:43:28.922Z,36.50
2018-03-19T12:44:34.034Z,36.50
2018-03-19T12:45:39.070Z,36.60
2018-03-19T12:46:44.072Z,36.50
2018-03-19T12:47:49.655Z,36.60
2018-03-19T12:48:54.644Z,36.60
2018-03-19T12:49:59.653Z,36.60
2018-03-19T12:51:04.639Z,36.70
2018-03-19T12:52:09.449Z,36.40
2018-03-19T12:53:14.462Z,36.40
2018-03-19T12:54:20.193Z,36.20
2018-03-19T12:55:25.050Z,34.80
2018-03-19T12:56:30.045Z,34.90
2018-03-19T12:57:35.015Z,35.00
2018-03-19T12:58:39.827Z,35.30
2018-03-19T12:59:44.631Z,35.50
2018-03-19T13:00:49.406Z,35.70
2018-03-19T13:01:54.311Z,35.80
2018-03-19T13:02:59.192Z,35.90
2018-03-19T13:04:04.803Z,36.00
2018-03-19T13:05:09.711Z,36.00
2018-03-19T13:06:14.664Z,36.00
2018-03-19T13:07:19.826Z,36.10
2018-03-19T13:08:24.924Z,36.30
2018-03-19T13:09:30.054Z,36.20
2018-03-19T13:10:35.055Z,36.30
2018-03-19T13:11:39.967Z,36.40
2018-03-19T13:12:44.933Z,36.50
2018-03-19T13:13:49.772Z,36.60
2018-03-19T13:14:54.546Z,36.30
2018-03-19T13:15:59.709Z,36.40
2018-03-19T13:17:04.733Z,36.40
2018-03-19T13:18:09.649Z,36.40
2018-03-19T13:19:14.432Z,36.50
2018-03-19T13:20:19.245Z,36.50
2018-03-19T13:21:24.065Z,36.50
2018-03-19T13:22:29.209Z,36.40
2018-03-19T13:23:34.029Z,36.60
2018-03-19T13:24:38.775Z,36.60
2018-03-19T13:25:43.803Z,36.70
2018-03-19T13:26:48.808Z,36.70
2018-03-19T13:27:53.743Z,36.70
2018-03-19T13:28:59.012Z,36.80
2018-03-19T13:30:04.072Z,36.90
2018-03-19T13:31:09.107Z,36.90
2018-03-19T13:32:14.185Z,36.90
2018-03-19T13:33:19.148Z,36.80
2018-03-19T13:34:24.215Z,36.70
2018-03-19T13:35:29.268Z,36.80
2018-03-19T13:36:34.394Z,36.80
2018-03-19T13:37:39.242Z,36.80
2018-03-19T13:38:44.642Z,36.80
2018-03-19T13:39:49.612Z,36.90
2018-03-19T13:40:55.485Z,37.00
2018-03-19T13:42:00.684Z,37.00
2018-03-19T13:43:05.789Z,36.80
2018-03-19T13:44:10.651Z,36.90
2018-03-19T13:45:15.568Z,36.80
2018-03-19T13:46:20.763Z,36.80
2018-03-19T13:47:25.807Z,37.00
2018-03-19T13:48:30.836Z,36.90
2018-03-19T13:49:35.700Z,37.10
2018-03-19T13:50:40.716Z,37.20
2018-03-19T13:51:45.704Z,37.30
2018-03-19T13:52:50.604Z,37.30
2018-03-19T13:53:55.695Z,37.40
2018-03-19T13:55:00.587Z,37.50
2018-03-19T13:56:05.642Z,37.60
2018-03-19T13:57:10.763Z,37.70
2018-03-19T13:58:15.692Z,37.70
2018-03-19T13:59:20.823Z,37.70
2018-03-19T14:00:25.849Z,37.80